Terminal Aerodrome Forecast
Issued by NWS

Home | Current Version | Previous Version | Text Only | Print | Product List | Glossary On
Versions: 1 2 3 4 5 6 7 8 9 10 11 12 13 14 15 16 17 18 19 20 21 22 23 24 25 26 27 28 29 30 31 32 33 34 35 36 37 38 39 40 41 42 43 44
000
FTUS45 KBOU 310700 AAA
TAFAPA
TAF AMD
KAPA 310700Z 3107/0106 35006KT P6SM BKN080 OVC100
     FM311000 32006KT P6SM BKN060 OVC080
     FM311200 30006KT P6SM VCSH SCT040 BKN060 OVC080
     FM311600 VRB04KT P6SM SCT050 BKN070
     FM312000 35010KT P6SM VCSH SCT040 BKN060
     FM312200 02008KT P6SM -SHRASN SCT028 BKN035 OVC050
      TEMPO 3123/0103 3SM -SHSN OVC025=

USA.gov is the U.S. government's official web portal to all federal, state and local government web resources and services.